Time;durP1;ratioP1;P1;durP2;ratioP2;P2;SDS_P1;SDS_P2;PMS_P1;PMS_P2;Temp;Humidity;BMP_temperature;BMP_pressure;BME280_temperature;BME280_humidity;BME280_pressure;Samples;Min_cycle;Max_cycle;Signal;HPM_P1;HPM_P2
2021/01/20 00:01:45;;;;;;;2.00;1.80;;;20.30;21.10;;;;;;5053722;28;20189;-49
2021/01/20 00:04:11;;;;;;;1.37;1.27;;;20.30;21.10;;;;;;5054487;28;20183;-50
2021/01/20 00:06:37;;;;;;;1.40;1.30;;;20.30;21.10;;;;;;5054556;28;20253;-50
2021/01/20 00:09:03;;;;;;;0.93;0.93;;;20.30;21.10;;;;;;5053702;28;20604;-50
2021/01/20 00:11:29;;;;;;;2.15;1.38;;;20.30;21.10;;;;;;5054324;28;20540;-50
2021/01/20 00:13:55;;;;;;;1.87;1.73;;;20.30;21.10;;;;;;5054255;28;20629;-50
2021/01/20 00:16:21;;;;;;;1.10;1.00;;;20.20;21.00;;;;;;5054132;28;20206;-50
2021/01/20 00:18:46;;;;;;;1.13;0.90;;;20.20;21.10;;;;;;5054198;28;20187;-50
2021/01/20 00:21:12;;;;;;;1.20;1.00;;;20.20;21.00;;;;;;5053972;28;20709;-50
2021/01/20 00:23:38;;;;;;;2.03;1.07;;;20.30;21.20;;;;;;5053791;28;20597;-50
2021/01/20 00:26:04;;;;;;;1.37;1.00;;;20.20;21.10;;;;;;5053916;28;20148;-50
2021/01/20 00:28:29;;;;;;;1.60;1.50;;;20.20;21.10;;;;;;5053825;28;20482;-50
2021/01/20 00:30:56;;;;;;;1.23;1.13;;;20.20;21.10;;;;;;5053869;28;20384;-51
2021/01/20 00:33:23;;;;;;;1.48;1.35;;;20.20;21.10;;;;;;5054146;28;20181;-50
2021/01/20 00:35:48;;;;;;;1.20;1.10;;;20.20;21.10;;;;;;5053877;28;20228;-49
2021/01/20 00:38:14;;;;;;;1.20;1.10;;;20.20;21.10;;;;;;5053319;28;20550;-50
2021/01/20 00:40:40;;;;;;;1.40;1.30;;;20.20;21.10;;;;;;5053792;28;20225;-49
2021/01/20 00:43:05;;;;;;;1.27;1.10;;;20.20;21.10;;;;;;5053527;28;20189;-49
2021/01/20 00:45:31;;;;;;;1.43;1.17;;;20.20;21.20;;;;;;5053623;28;20162;-50
2021/01/20 00:47:56;;;;;;;1.63;1.00;;;20.20;21.10;;;;;;5053569;28;20182;-49
2021/01/20 00:50:22;;;;;;;1.80;1.20;;;20.20;21.10;;;;;;5035946;28;20224;-49
2021/01/20 00:52:48;;;;;;;1.40;1.17;;;20.20;21.70;;;;;;5052973;28;20159;-49
2021/01/20 00:55:14;;;;;;;1.90;1.13;;;20.20;21.20;;;;;;5053555;28;20166;-50
2021/01/20 00:57:40;;;;;;;1.27;0.90;;;20.20;21.10;;;;;;5053532;28;20201;-50
2021/01/20 01:00:07;;;;;;;1.30;1.20;;;20.20;21.20;;;;;;5051420;28;20187;-49
2021/01/20 01:02:35;;;;;;;2.08;1.20;;;20.20;21.20;;;;;;5053504;28;20172;-50
2021/01/20 01:05:00;;;;;;;1.35;1.05;;;20.20;21.20;;;;;;5053485;28;20187;-50
2021/01/20 01:07:26;;;;;;;1.20;1.03;;;20.20;21.20;;;;;;5050573;28;20614;-49
2021/01/20 01:09:51;;;;;;;1.17;0.97;;;20.20;21.20;;;;;;5033662;28;20163;-49
2021/01/20 01:12:20;;;;;;;1.27;1.07;;;20.20;21.20;;;;;;5034103;28;20168;-50
2021/01/20 01:14:46;;;;;;;1.25;1.00;;;20.20;21.20;;;;;;5037598;28;20214;-50
2021/01/20 01:17:11;;;;;;;1.07;0.97;;;20.20;21.20;;;;;;5037543;28;20168;-49
2021/01/20 01:19:37;;;;;;;1.87;1.30;;;20.20;21.20;;;;;;5037486;28;20233;-50
2021/01/20 01:22:03;;;;;;;1.37;1.20;;;20.20;21.20;;;;;;5037573;28;20160;-48
2021/01/20 01:24:28;;;;;;;1.60;1.20;;;20.20;21.20;;;;;;5037024;28;20167;-49
2021/01/20 01:26:54;;;;;;;1.17;1.03;;;20.10;21.10;;;;;;5019855;28;20599;-50
2021/01/20 01:29:19;;;;;;;1.30;1.17;;;20.10;21.20;;;;;;5037499;28;20186;-50
2021/01/20 01:31:45;;;;;;;1.73;1.10;;;20.10;21.20;;;;;;5037336;28;20164;-49
2021/01/20 01:34:11;;;;;;;1.40;1.30;;;20.10;21.20;;;;;;5037244;28;20164;-50
2021/01/20 01:36:37;;;;;;;1.30;1.20;;;20.10;21.10;;;;;;5037567;28;20210;-50
2021/01/20 01:39:04;;;;;;;2.08;1.40;;;20.10;21.20;;;;;;5036748;28;20148;-49
2021/01/20 01:41:29;;;;;;;1.50;1.40;;;20.10;21.20;;;;;;5037150;28;20740;-50
2021/01/20 01:43:55;;;;;;;1.67;1.57;;;20.10;21.20;;;;;;5037126;28;20168;-49
2021/01/20 01:46:21;;;;;;;1.00;0.80;;;20.10;21.20;;;;;;5037240;28;20630;-50
2021/01/20 01:48:46;;;;;;;1.43;1.10;;;20.10;21.20;;;;;;5037087;28;20630;-50
2021/01/20 01:51:12;;;;;;;1.23;1.10;;;20.10;21.20;;;;;;5037025;28;20631;-50
2021/01/20 01:53:37;;;;;;;2.40;1.30;;;20.10;21.20;;;;;;5036562;28;20252;-49
2021/01/20 01:56:03;;;;;;;1.37;1.07;;;20.10;21.20;;;;;;5036815;28;20171;-49
2021/01/20 01:58:30;;;;;;;1.60;1.10;;;20.10;21.20;;;;;;5036880;28;20202;-49
2021/01/20 02:00:56;;;;;;;1.23;0.82;;;20.10;21.20;;;;;;5036634;28;20458;-49
2021/01/20 02:03:22;;;;;;;2.17;1.20;;;20.10;21.30;;;;;;5036826;28;20205;-49
2021/01/20 02:05:51;;;;;;;1.20;1.10;;;20.10;21.30;;;;;;5036718;28;20885;-49
2021/01/20 02:08:16;;;;;;;1.17;1.08;;;20.10;21.20;;;;;;5018653;28;20274;-49
2021/01/20 02:10:42;;;;;;;1.03;0.97;;;20.10;21.20;;;;;;5036731;28;20168;-49
2021/01/20 02:13:28;;;;;;;1.00;0.90;;;20.10;21.30;;;;;;5036615;28;20664;-49
2021/01/20 02:15:56;;;;;;;1.70;1.10;;;20.10;21.30;;;;;;5036546;28;20864;-49
2021/01/20 02:18:26;;;;;;;1.40;1.30;;;20.10;21.30;;;;;;5036473;28;20202;-50
2021/01/20 02:21:27;;;;;;;1.40;1.15;;;20.10;21.30;;;;;;5036403;28;20657;-49
2021/01/20 02:23:56;;;;;;;1.58;1.38;;;20.10;21.30;;;;;;4992737;28;20191;-50
2021/01/20 02:26:29;;;;;;;1.05;0.95;;;20.10;21.30;;;;;;5036244;28;20195;-49
2021/01/20 02:29:29;;;;;;;1.33;1.23;;;20.10;21.30;;;;;;5036329;28;20159;-49
2021/01/20 02:31:55;;;;;;;1.45;1.30;;;20.00;21.20;;;;;;5036223;28;20166;-50
2021/01/20 02:34:22;;;;;;;1.20;1.10;;;20.00;21.20;;;;;;5036137;28;20198;-50
2021/01/20 02:36:52;;;;;;;1.25;1.00;;;20.00;21.20;;;;;;5036106;28;20160;-50
2021/01/20 02:39:21;;;;;;;0.90;0.77;;;20.00;21.20;;;;;;5035651;28;20603;-50
2021/01/20 02:41:47;;;;;;;1.40;0.90;;;20.00;21.80;;;;;;5036067;28;20152;-50
2021/01/20 02:44:13;;;;;;;1.27;0.90;;;20.00;21.20;;;;;;5035901;28;20163;-50
2021/01/20 02:46:40;;;;;;;1.10;1.00;;;20.00;21.30;;;;;;5036122;28;20402;-49
2021/01/20 02:49:06;;;;;;;1.10;0.80;;;20.00;21.20;;;;;;5035890;28;20247;-49
2021/01/20 02:51:38;;;;;;;1.05;1.00;;;20.00;21.30;;;;;;5035921;28;20160;-50
2021/01/20 02:54:04;;;;;;;1.67;1.23;;;20.00;21.30;;;;;;5035273;28;20159;-50
2021/01/20 02:56:32;;;;;;;1.23;0.85;;;20.00;21.20;;;;;;5035834;28;20507;-49
2021/01/20 02:59:02;;;;;;;1.30;0.90;;;20.00;21.30;;;;;;5035759;28;20172;-49
2021/01/20 03:01:30;;;;;;;2.10;1.15;;;20.00;21.20;;;;;;5035627;28;20651;-49
2021/01/20 03:03:58;;;;;;;1.27;1.00;;;20.00;21.30;;;;;;5017782;28;20180;-49
2021/01/20 03:06:24;;;;;;;1.17;1.02;;;20.00;21.30;;;;;;5035605;28;20156;-49
2021/01/20 03:08:51;;;;;;;1.20;1.10;;;20.00;21.30;;;;;;5034929;28;20231;-50
2021/01/20 03:11:16;;;;;;;1.23;1.05;;;20.00;21.20;;;;;;5035657;28;20195;-49
2021/01/20 03:13:45;;;;;;;1.10;1.00;;;20.00;21.30;;;;;;5035442;28;20230;-50
2021/01/20 03:16:11;;;;;;;1.40;1.05;;;20.00;21.30;;;;;;5035464;28;20234;-50
2021/01/20 03:18:37;;;;;;;1.20;1.10;;;20.00;21.20;;;;;;5035295;28;20206;-49
2021/01/20 03:21:02;;;;;;;1.30;1.20;;;20.00;21.30;;;;;;5035346;28;20195;-49
2021/01/20 03:23:29;;;;;;;1.50;1.40;;;20.00;21.30;;;;;;5034843;28;20185;-49
2021/01/20 03:25:56;;;;;;;1.10;0.98;;;20.00;21.30;;;;;;5035320;28;20794;-49
2021/01/20 03:28:23;;;;;;;1.13;0.93;;;20.00;21.30;;;;;;5035069;28;20637;-50
2021/01/20 03:30:49;;;;;;;1.60;1.10;;;20.00;21.30;;;;;;5035436;28;20179;-50
2021/01/20 03:33:15;;;;;;;1.23;1.15;;;20.00;21.30;;;;;;5017255;28;20176;-49
2021/01/20 03:35:41;;;;;;;1.40;1.10;;;20.00;21.30;;;;;;5034222;28;20163;-50
2021/01/20 03:38:06;;;;;;;1.47;1.17;;;20.00;21.30;;;;;;5034360;28;20289;-49
2021/01/20 03:40:32;;;;;;;1.23;0.80;;;20.00;21.30;;;;;;5035088;28;20203;-49
2021/01/20 03:42:58;;;;;;;0.90;0.70;;;20.00;21.30;;;;;;5034826;28;20381;-49
2021/01/20 03:45:23;;;;;;;0.87;0.87;;;20.00;21.30;;;;;;5034975;28;20230;-50
2021/01/20 03:47:49;;;;;;;0.80;0.70;;;20.00;21.30;;;;;;5034828;28;20187;-49
2021/01/20 03:50:14;;;;;;;2.23;1.27;;;20.00;21.30;;;;;;5034795;28;20650;-50
2021/01/20 03:52:40;;;;;;;1.13;1.03;;;20.00;21.40;;;;;;5033929;28;20642;-50
2021/01/20 03:55:06;;;;;;;1.37;1.00;;;20.00;21.30;;;;;;5034748;28;20238;-50
2021/01/20 03:57:32;;;;;;;0.97;0.93;;;20.00;21.30;;;;;;5034745;28;20152;-50
2021/01/20 03:59:57;;;;;;;1.30;0.90;;;20.00;21.30;;;;;;5034649;28;20458;-49
2021/01/20 04:02:23;;;;;;;0.97;0.90;;;20.00;21.90;;;;;;5034291;28;20538;-50
2021/01/20 04:04:51;;;;;;;1.43;1.17;;;20.00;21.30;;;;;;5034547;28;20170;-50
2021/01/20 04:07:17;;;;;;;1.15;0.88;;;20.00;21.30;;;;;;5033835;28;20164;-50
2021/01/20 04:09:42;;;;;;;1.53;1.10;;;20.00;21.30;;;;;;5034503;28;20164;-50
2021/01/20 04:12:08;;;;;;;1.47;1.37;;;20.00;21.30;;;;;;5034325;28;20210;-50
2021/01/20 04:14:34;;;;;;;1.60;1.13;;;20.00;21.40;;;;;;5034344;28;20641;-49
2021/01/20 04:17:00;;;;;;;1.20;1.00;;;20.00;21.30;;;;;;5034516;28;20401;-51
2021/01/20 04:19:25;;;;;;;1.53;0.97;;;20.00;21.30;;;;;;5034138;28;20167;-50
2021/01/20 04:21:51;;;;;;;1.70;1.43;;;20.00;21.30;;;;;;5034086;28;20578;-50
2021/01/20 04:24:17;;;;;;;1.00;0.90;;;20.00;21.30;;;;;;5033857;28;20163;-50
2021/01/20 04:26:43;;;;;;;1.10;0.70;;;20.00;21.30;;;;;;5034128;28;20152;-50
2021/01/20 04:29:11;;;;;;;0.93;0.80;;;20.00;21.30;;;;;;5034108;28;20409;-50
2021/01/20 04:31:37;;;;;;;1.52;1.00;;;20.00;21.30;;;;;;5016913;28;20162;-50
2021/01/20 04:34:03;;;;;;;0.75;0.70;;;20.00;21.30;;;;;;5033948;28;20242;-50
2021/01/20 04:36:29;;;;;;;0.80;0.80;;;20.00;21.30;;;;;;5034007;28;20565;-49
2021/01/20 04:38:54;;;;;;;1.30;1.10;;;20.00;21.30;;;;;;5033535;28;20403;-50
2021/01/20 04:41:20;;;;;;;1.20;1.10;;;20.00;21.30;;;;;;5033865;28;20211;-48
2021/01/20 04:43:46;;;;;;;1.53;0.93;;;20.00;21.30;;;;;;5033798;28;20160;-49
2021/01/20 04:46:12;;;;;;;1.93;0.73;;;20.00;21.30;;;;;;5033900;28;20206;-51
2021/01/20 04:48:38;;;;;;;1.40;0.80;;;20.00;21.90;;;;;;5033454;28;20155;-49
2021/01/20 04:51:06;;;;;;;1.10;1.00;;;20.00;21.30;;;;;;5033544;28;20615;-49
2021/01/20 04:53:33;;;;;;;0.93;0.73;;;20.00;21.30;;;;;;5033555;28;20163;-49
2021/01/20 04:56:09;;;;;;;0.90;0.70;;;20.00;21.30;;;;;;5033740;28;20634;-49
2021/01/20 04:58:35;;;;;;;1.10;1.00;;;20.00;21.30;;;;;;5033728;28;20645;-50
2021/01/20 05:01:02;;;;;;;1.00;0.90;;;20.00;21.30;;;;;;5033273;28;20196;-50
2021/01/20 05:03:28;;;;;;;0.80;0.80;;;20.00;21.30;;;;;;5033450;28;20159;-50
2021/01/20 05:05:55;;;;;;;1.10;1.00;;;20.00;21.40;;;;;;5033414;28;20251;-49
2021/01/20 05:08:21;;;;;;;0.98;0.93;;;20.00;21.30;;;;;;5032873;28;20541;-50
2021/01/20 05:10:48;;;;;;;1.27;1.17;;;20.00;21.30;;;;;;5033382;28;20155;-50
2021/01/20 05:13:44;;;;;;;1.00;0.77;;;20.00;21.30;;;;;;5015784;28;20172;-51
2021/01/20 05:16:25;;;;;;;1.05;0.90;;;20.00;21.40;;;;;;4999910;28;20187;-50
2021/01/20 05:18:50;;;;;;;1.13;1.02;;;20.00;21.30;;;;;;5033342;28;20166;-50
2021/01/20 05:21:19;;;;;;;1.20;1.10;;;20.00;21.30;;;;;;5033446;28;20520;-51
2021/01/20 05:23:45;;;;;;;0.90;0.80;;;20.00;21.40;;;;;;5032873;28;20243;-49
2021/01/20 05:26:11;;;;;;;1.30;0.93;;;20.00;21.30;;;;;;5033265;28;20163;-50
2021/01/20 05:28:37;;;;;;;1.20;1.10;;;20.00;21.30;;;;;;5015933;28;20647;-50
2021/01/20 05:31:04;;;;;;;1.10;0.80;;;20.00;21.30;;;;;;5033471;28;20183;-49
2021/01/20 05:33:40;;;;;;;1.20;1.10;;;20.00;21.40;;;;;;5033147;28;20413;-50
2021/01/20 05:36:09;;;;;;;0.68;0.65;;;20.00;21.30;;;;;;5033322;28;20175;-49
2021/01/20 05:38:42;;;;;;;1.30;1.20;;;20.00;21.30;;;;;;5032878;28;20238;-49
2021/01/20 05:41:29;;;;;;;0.82;0.82;;;20.00;21.30;;;;;;5033257;28;20677;-50
2021/01/20 05:44:08;;;;;;;1.45;1.35;;;20.00;21.60;;;;;;5033077;28;20148;-50
2021/01/20 05:46:35;;;;;;;1.00;0.90;;;20.00;21.30;;;;;;5033199;28;20159;-49
2021/01/20 05:49:01;;;;;;;1.02;0.90;;;20.10;21.40;;;;;;5033066;28;20152;-49
2021/01/20 05:51:40;;;;;;;2.15;1.13;;;20.10;21.40;;;;;;5033040;28;20160;-50
2021/01/20 05:54:06;;;;;;;1.75;1.23;;;20.10;21.40;;;;;;5032639;28;20574;-50
2021/01/20 05:56:32;;;;;;;1.23;0.80;;;20.10;21.30;;;;;;5033196;28;20288;-50
2021/01/20 05:58:58;;;;;;;0.97;0.90;;;20.10;21.40;;;;;;5033414;28;20604;-50
2021/01/20 06:01:25;;;;;;;0.95;0.80;;;20.10;21.30;;;;;;5036570;28;20233;-50
2021/01/20 06:03:52;;;;;;;1.25;0.98;;;20.10;21.30;;;;;;5036603;28;20164;-49
2021/01/20 06:06:19;;;;;;;0.95;0.85;;;20.10;21.30;;;;;;5036744;28;20187;-49
2021/01/20 06:08:45;;;;;;;1.23;1.13;;;20.10;21.30;;;;;;5036497;28;20261;-49
2021/01/20 06:11:13;;;;;;;0.85;0.70;;;20.10;21.30;;;;;;5036815;28;20240;-51
2021/01/20 06:13:39;;;;;;;1.13;1.02;;;20.10;21.30;;;;;;5019208;28;20148;-50
2021/01/20 06:16:17;;;;;;;1.33;1.10;;;20.10;21.30;;;;;;5036582;28;20160;-49
2021/01/20 06:18:55;;;;;;;2.08;1.15;;;20.10;21.30;;;;;;5036644;28;20243;-51
2021/01/20 06:21:21;;;;;;;1.08;0.90;;;20.10;21.30;;;;;;5036285;28;20191;-50
2021/01/20 06:24:07;;;;;;;1.17;1.07;;;20.20;21.30;;;;;;5035851;28;20210;-50
2021/01/20 06:26:36;;;;;;;0.70;0.70;;;20.20;21.30;;;;;;5036313;28;20710;-50
2021/01/20 06:29:05;;;;;;;1.17;1.08;;;20.20;21.30;;;;;;5036227;28;20307;-50
2021/01/20 06:31:36;;;;;;;1.00;0.90;;;20.20;21.30;;;;;;5036172;28;20162;-50
2021/01/20 06:34:05;;;;;;;1.25;0.80;;;20.20;21.20;;;;;;5036050;28;20631;-50
2021/01/20 06:36:35;;;;;;;1.17;1.08;;;20.20;21.20;;;;;;5036402;28;20164;-50
2021/01/20 06:39:27;;;;;;;1.20;1.10;;;20.20;21.20;;;;;;5035571;28;20673;-49
2021/01/20 06:41:54;;;;;;;0.90;0.60;;;20.20;21.20;;;;;;5035853;28;20183;-50
2021/01/20 06:44:20;;;;;;;1.25;0.80;;;20.20;21.20;;;;;;5035882;28;20179;-50
2021/01/20 06:46:57;;;;;;;1.30;1.00;;;20.20;21.20;;;;;;5035812;28;20603;-49
2021/01/20 06:49:24;;;;;;;1.10;0.82;;;20.20;21.20;;;;;;5035907;28;20499;-50
2021/01/20 06:52:12;;;;;;;1.55;1.13;;;20.20;21.20;;;;;;5035454;28;20164;-50
2021/01/20 06:54:40;;;;;;;1.08;0.98;;;20.30;21.20;;;;;;5035712;28;20314;-51
2021/01/20 06:57:27;;;;;;;1.48;0.80;;;20.30;21.20;;;;;;5035961;28;20180;-50
2021/01/20 07:00:14;;;;;;;0.80;0.80;;;20.30;21.20;;;;;;5035635;28;20196;-49
2021/01/20 07:03:00;;;;;;;1.30;1.00;;;20.30;21.20;;;;;;5035240;28;20651;-51
2021/01/20 07:05:38;;;;;;;1.10;1.00;;;20.30;21.20;;;;;;5035798;28;20160;-49
2021/01/20 07:08:08;;;;;;;1.15;0.80;;;20.30;21.20;;;;;;5017633;28;20230;-50
2021/01/20 07:11:03;;;;;;;1.23;0.95;;;20.30;21.20;;;;;;5035141;28;20167;-50
2021/01/20 07:13:34;;;;;;;0.95;0.85;;;20.30;21.20;;;;;;5026646;28;20188;-50
2021/01/20 07:16:01;;;;;;;1.08;0.90;;;20.30;21.20;;;;;;5035298;28;20166;-52
2021/01/20 07:18:27;;;;;;;1.60;1.40;;;20.30;21.20;;;;;;5034969;28;20243;-50
2021/01/20 07:20:54;;;;;;;1.53;0.90;;;20.30;21.10;;;;;;5035116;28;20592;-50
2021/01/20 07:23:20;;;;;;;1.42;1.33;;;20.30;21.10;;;;;;5034497;28;20377;-50
2021/01/20 07:25:48;;;;;;;1.08;0.85;;;20.30;21.10;;;;;;5035034;28;20160;-50
2021/01/20 07:28:14;;;;;;;0.90;0.80;;;20.30;21.10;;;;;;5034868;28;20239;-49
2021/01/20 07:30:40;;;;;;;1.60;1.30;;;20.30;21.00;;;;;;5017139;28;20207;-49
2021/01/20 07:33:19;;;;;;;0.83;0.83;;;20.30;20.60;;;;;;5034594;28;20275;-50
2021/01/20 07:35:45;;;;;;;1.05;0.70;;;20.30;21.00;;;;;;5034665;28;20646;-51
2021/01/20 07:38:11;;;;;;;1.53;0.80;;;20.30;21.00;;;;;;5033990;28;20260;-49
2021/01/20 07:40:40;;;;;;;1.17;1.07;;;20.40;21.10;;;;;;5034580;28;20195;-49
2021/01/20 07:43:05;;;;;;;0.88;0.80;;;20.40;21.00;;;;;;5034319;28;20521;-49
2021/01/20 07:45:39;;;;;;;0.73;0.70;;;20.40;21.00;;;;;;5034419;28;20239;-50
2021/01/20 07:48:08;;;;;;;0.70;0.70;;;20.40;21.00;;;;;;5034281;28;20151;-51
2021/01/20 07:50:42;;;;;;;1.15;0.90;;;20.40;21.00;;;;;;5034411;28;20164;-49
2021/01/20 07:53:13;;;;;;;2.03;1.10;;;20.40;21.00;;;;;;5033641;28;20156;-50
2021/01/20 07:55:40;;;;;;;1.65;1.00;;;20.40;21.00;;;;;;5034565;28;20186;-49
2021/01/20 07:58:05;;;;;;;0.85;0.85;;;20.40;20.90;;;;;;5027156;28;20183;-51
2021/01/20 08:00:40;;;;;;;1.20;0.87;;;20.40;20.90;;;;;;5004129;28;20234;-49
2021/01/20 08:03:06;;;;;;;0.73;0.73;;;20.50;20.90;;;;;;5019263;28;20188;-50
2021/01/20 08:05:33;;;;;;;1.10;0.93;;;20.50;20.90;;;;;;5032918;28;20183;-50
2021/01/20 08:08:10;;;;;;;1.00;0.80;;;20.50;21.40;;;;;;5027567;28;20234;-51
2021/01/20 08:10:36;;;;;;;1.20;0.93;;;20.50;20.80;;;;;;5026015;28;20259;-50
2021/01/20 08:13:03;;;;;;;2.50;1.10;;;20.50;20.80;;;;;;5021862;28;20585;-51
2021/01/20 08:15:32;;;;;;;1.25;1.10;;;20.50;20.70;;;;;;5031951;28;20394;-50
2021/01/20 08:17:58;;;;;;;2.00;1.40;;;20.50;20.70;;;;;;5014933;28;20210;-50
2021/01/20 08:20:30;;;;;;;0.85;0.85;;;20.50;20.70;;;;;;5027701;28;20234;-50
2021/01/20 08:22:56;;;;;;;1.40;1.20;;;20.50;20.60;;;;;;5032296;28;20160;-49
2021/01/20 08:25:22;;;;;;;1.10;1.00;;;20.50;20.60;;;;;;5011202;28;255753;-51
2021/01/20 08:27:48;;;;;;;0.95;0.95;;;20.50;20.60;;;;;;5033456;28;20258;-50
2021/01/20 08:30:34;;;;;;;1.00;0.80;;;20.50;20.60;;;;;;5028972;28;20176;-51
2021/01/20 08:33:01;;;;;;;1.05;0.95;;;20.60;20.70;;;;;;5022443;28;20224;-51
2021/01/20 08:35:28;;;;;;;0.70;0.63;;;20.60;20.70;;;;;;5009342;28;20233;-50
2021/01/20 08:37:54;;;;;;;0.65;0.65;;;20.60;20.70;;;;;;5032479;28;20253;-51
2021/01/20 08:40:20;;;;;;;1.17;1.07;;;20.60;20.70;;;;;;5019954;28;20207;-51
2021/01/20 08:42:46;;;;;;;1.00;0.90;;;20.60;20.80;;;;;;5013363;28;20384;-50
2021/01/20 08:45:26;;;;;;;0.80;0.80;;;20.60;20.70;;;;;;5023990;28;20182;-52
2021/01/20 08:47:56;;;;;;;1.20;0.80;;;20.60;20.70;;;;;;5032759;28;20167;-51
2021/01/20 08:50:28;;;;;;;1.17;1.08;;;20.70;20.70;;;;;;5019734;28;20168;-52
2021/01/20 08:52:59;;;;;;;1.23;1.13;;;20.70;20.70;;;;;;5012723;28;20260;-51
2021/01/20 08:55:30;;;;;;;1.08;0.80;;;20.70;20.70;;;;;;5013134;28;20666;-50
2021/01/20 08:58:15;;;;;;;1.25;0.70;;;20.70;20.70;;;;;;5017506;28;20172;-51
2021/01/20 09:00:42;;;;;;;0.95;0.85;;;22.90;22.20;;;;;;5018577;28;20214;-50
2021/01/20 09:03:16;;;;;;;1.08;0.70;;;22.70;22.00;;;;;;5031980;28;20658;-51
2021/01/20 09:05:42;;;;;;;1.00;0.90;;;20.70;20.70;;;;;;5032124;28;20164;-50
2021/01/20 09:08:08;;;;;;;0.90;0.90;;;20.70;20.70;;;;;;5020612;28;20694;-50
2021/01/20 09:10:34;;;;;;;1.30;1.10;;;20.70;20.70;;;;;;5044333;28;20440;-50
2021/01/20 09:13:00;;;;;;;2.25;1.05;;;20.70;20.70;;;;;;5051159;28;20937;-50
2021/01/20 09:15:26;;;;;;;1.10;1.00;;;20.70;20.70;;;;;;5052747;28;20166;-50
2021/01/20 09:17:51;;;;;;;1.10;0.90;;;20.70;20.70;;;;;;5034017;28;20392;-50
2021/01/20 09:20:17;;;;;;;0.73;0.70;;;20.70;20.70;;;;;;5036390;28;20203;-49
2021/01/20 09:22:43;;;;;;;1.30;1.20;;;20.70;20.70;;;;;;5048555;28;20517;-50
2021/01/20 09:25:09;;;;;;;0.87;0.80;;;20.80;20.80;;;;;;5051290;28;20183;-50
2021/01/20 09:27:35;;;;;;;0.82;0.73;;;20.80;20.80;;;;;;5051807;28;20171;-50
2021/01/20 09:30:01;;;;;;;1.00;0.90;;;20.80;20.80;;;;;;5048393;28;20171;-50
2021/01/20 09:32:26;;;;;;;1.33;1.00;;;20.80;20.70;;;;;;5044986;28;20178;-50
2021/01/20 09:34:52;;;;;;;0.77;0.77;;;20.80;20.80;;;;;;5024253;28;20538;-50
2021/01/20 09:37:20;;;;;;;0.80;0.70;;;20.80;20.80;;;;;;5046035;28;20171;-50
2021/01/20 09:39:48;;;;;;;2.05;0.90;;;20.80;20.70;;;;;;5045115;28;20176;-51
2021/01/20 09:42:13;;;;;;;0.98;0.90;;;20.80;20.70;;;;;;5035878;28;20160;-50
2021/01/20 09:44:39;;;;;;;0.90;0.80;;;20.80;20.70;;;;;;5035796;28;20170;-49
2021/01/20 09:47:05;;;;;;;1.80;0.90;;;20.80;20.60;;;;;;5050317;28;20245;-51
2021/01/20 09:49:30;;;;;;;1.80;0.97;;;20.80;20.60;;;;;;5047838;28;20195;-49
2021/01/20 09:51:56;;;;;;;0.77;0.70;;;20.90;20.60;;;;;;5038747;28;20527;-49
2021/01/20 09:54:25;;;;;;;0.80;0.80;;;20.90;20.50;;;;;;5055457;28;20517;-50
2021/01/20 09:56:50;;;;;;;1.25;1.00;;;20.90;20.50;;;;;;5047226;28;20168;-50
2021/01/20 09:59:16;;;;;;;1.23;0.83;;;20.90;20.50;;;;;;5022622;28;20649;-50
2021/01/20 10:01:41;;;;;;;1.00;0.90;;;20.90;20.40;;;;;;5044104;28;20210;-50
2021/01/20 10:04:07;;;;;;;1.53;0.90;;;20.90;20.40;;;;;;5020519;28;20232;-49
2021/01/20 10:06:33;;;;;;;0.83;0.80;;;21.00;20.40;;;;;;5035907;28;20160;-50
2021/01/20 10:08:59;;;;;;;1.03;0.90;;;21.00;20.40;;;;;;5038252;28;20226;-49
2021/01/20 10:11:25;;;;;;;0.70;0.70;;;21.00;20.30;;;;;;5045833;28;20164;-50
2021/01/20 10:13:50;;;;;;;1.10;1.00;;;21.00;20.20;;;;;;5040947;28;20229;-50
2021/01/20 10:16:16;;;;;;;0.87;0.87;;;21.00;20.20;;;;;;5040645;28;20182;-49
2021/01/20 10:18:42;;;;;;;1.20;0.93;;;21.00;20.20;;;;;;5035795;28;20195;-51
2021/01/20 10:21:08;;;;;;;1.20;1.00;;;21.10;20.20;;;;;;5055335;28;20186;-51
2021/01/20 10:23:34;;;;;;;1.07;0.97;;;21.10;20.40;;;;;;5055054;28;20151;-49
2021/01/20 10:25:59;;;;;;;1.97;1.10;;;21.10;20.40;;;;;;5055530;28;20164;-50
2021/01/20 10:28:25;;;;;;;0.97;0.80;;;21.10;20.40;;;;;;5036133;28;20255;-50
2021/01/20 10:30:54;;;;;;;2.03;1.20;;;21.10;20.40;;;;;;5052511;28;20229;-51
2021/01/20 10:33:19;;;;;;;3.65;1.30;;;21.10;20.40;;;;;;5039446;28;20294;-49
2021/01/20 10:35:45;;;;;;;5.03;1.20;;;21.10;20.40;;;;;;5035515;28;20242;-49
2021/01/20 10:38:11;;;;;;;1.67;1.33;;;21.10;20.40;;;;;;5034418;28;20670;-50
2021/01/20 10:40:36;;;;;;;1.77;1.00;;;21.10;20.40;;;;;;5049971;28;20542;-50
2021/01/20 10:43:02;;;;;;;1.57;1.30;;;21.20;20.40;;;;;;5053844;28;20170;-50
2021/01/20 10:45:28;;;;;;;1.60;1.20;;;21.20;20.40;;;;;;5036246;28;20186;-50
2021/01/20 10:47:53;;;;;;;2.00;1.40;;;21.20;20.40;;;;;;5043763;28;20179;-50
2021/01/20 10:50:19;;;;;;;2.17;1.40;;;21.20;20.40;;;;;;5039282;28;20187;-50
2021/01/20 10:52:45;;;;;;;1.53;1.27;;;21.20;20.40;;;;;;5053660;28;20273;-50
2021/01/20 10:55:11;;;;;;;1.20;1.10;;;21.20;20.40;;;;;;5040526;28;20175;-50
2021/01/20 10:57:37;;;;;;;1.90;1.30;;;21.20;20.40;;;;;;5034977;28;20207;-50
2021/01/20 11:00:04;;;;;;;2.40;1.20;;;21.20;20.40;;;;;;5035545;28;20206;-50
2021/01/20 11:02:30;;;;;;;1.30;1.08;;;21.30;20.40;;;;;;5034574;28;20225;-50
2021/01/20 11:04:55;;;;;;;1.77;1.30;;;21.30;20.40;;;;;;5049731;28;20175;-50
2021/01/20 11:07:21;;;;;;;2.57;1.37;;;21.30;20.40;;;;;;5053975;28;20602;-50
2021/01/20 11:09:48;;;;;;;1.35;1.05;;;21.30;20.40;;;;;;5041754;28;20632;-50
2021/01/20 11:12:14;;;;;;;1.55;1.23;;;21.30;20.40;;;;;;5025517;28;20171;-49
2021/01/20 11:14:53;;;;;;;1.67;1.51;;;21.30;20.40;;;;;;4614919;28;10001694;-51
2021/01/20 11:17:18;;;;;;;1.45;1.35;;;21.30;20.40;;;;;;5031426;28;20192;-51
2021/01/20 11:19:44;;;;;;;1.43;1.33;;;21.30;20.40;;;;;;5033798;28;20176;-50
2021/01/20 11:22:09;;;;;;;1.67;1.20;;;21.30;20.40;;;;;;5031825;28;20252;-50
2021/01/20 11:24:35;;;;;;;1.40;1.30;;;21.30;20.40;;;;;;5034641;28;20258;-51
2021/01/20 11:27:01;;;;;;;1.50;1.40;;;21.30;20.40;;;;;;5034463;28;20284;-49
2021/01/20 11:29:27;;;;;;;1.90;1.67;;;21.30;20.40;;;;;;5033881;28;20231;-50
2021/01/20 11:31:53;;;;;;;2.70;1.43;;;21.30;20.40;;;;;;5034137;28;20226;-49
2021/01/20 11:34:18;;;;;;;3.53;1.47;;;21.30;20.50;;;;;;5034256;28;20176;-51
2021/01/20 11:36:44;;;;;;;1.40;1.10;;;21.30;20.50;;;;;;5032936;28;20167;-49
2021/01/20 11:39:10;;;;;;;1.50;1.30;;;21.30;20.50;;;;;;5033372;28;20570;-50
2021/01/20 11:41:36;;;;;;;2.20;1.37;;;21.30;20.60;;;;;;5034401;28;20719;-50
2021/01/20 11:44:02;;;;;;;1.47;0.90;;;21.30;20.60;;;;;;5033737;28;20167;-52
2021/01/20 11:46:30;;;;;;;1.30;1.02;;;21.30;20.60;;;;;;5032825;28;20433;-50
2021/01/20 11:48:57;;;;;;;1.85;1.50;;;21.30;21.20;;;;;;5034333;28;20159;-51
2021/01/20 11:51:23;;;;;;;1.63;1.38;;;21.30;20.70;;;;;;5033953;28;20152;-49
2021/01/20 11:53:48;;;;;;;1.30;1.20;;;21.30;20.70;;;;;;5033719;28;20175;-50
2021/01/20 11:56:14;;;;;;;1.97;1.57;;;21.30;20.70;;;;;;5032890;28;20175;-50
2021/01/20 11:58:39;;;;;;;1.33;1.13;;;21.30;20.80;;;;;;5033604;28;20542;-49
2021/01/20 12:01:05;;;;;;;1.30;1.20;;;21.20;20.70;;;;;;5032337;28;20187;-51
2021/01/20 12:03:33;;;;;;;2.57;1.30;;;21.20;20.80;;;;;;5033042;28;20171;-51
2021/01/20 12:05:59;;;;;;;1.02;0.90;;;21.20;20.80;;;;;;5033636;28;20240;-51
2021/01/20 12:11:16;;;;;;;5.85;1.30;;;21.20;20.80;;;;;;5052238;28;20221;-51
2021/01/20 12:13:42;;;;;;;1.93;1.27;;;21.20;20.70;;;;;;5037212;28;20198;-52
2021/01/20 12:16:08;;;;;;;3.53;1.83;;;21.20;20.70;;;;;;5053497;28;20237;-51
2021/01/20 12:18:33;;;;;;;3.73;1.33;;;21.20;20.70;;;;;;5051914;28;20179;-52
2021/01/20 12:21:02;;;;;;;2.50;1.03;;;19.60;19.50;;;;;;5053128;28;20195;-50
2021/01/20 12:23:28;;;;;;;2.85;2.10;;;21.20;20.60;;;;;;5052015;28;20197;-51
2021/01/20 12:25:54;;;;;;;2.87;1.40;;;21.20;20.60;;;;;;5053564;28;20155;-50
2021/01/20 12:28:20;;;;;;;3.00;2.00;;;21.20;20.60;;;;;;5053641;28;20401;-52
2021/01/20 12:30:45;;;;;;;2.13;1.13;;;21.20;20.60;;;;;;5052783;28;20571;-50
2021/01/20 12:33:11;;;;;;;2.07;1.37;;;21.20;20.60;;;;;;5052927;28;20171;-51
2021/01/20 12:35:37;;;;;;;3.30;1.90;;;21.20;20.60;;;;;;5053202;28;20187;-50
2021/01/20 12:38:06;;;;;;;1.40;1.30;;;21.20;20.60;;;;;;5050166;28;20216;-50
2021/01/20 12:40:32;;;;;;;3.40;1.38;;;21.20;20.60;;;;;;5053191;28;20221;-50
2021/01/20 12:42:57;;;;;;;1.87;1.30;;;21.20;20.70;;;;;;5052490;28;20491;-51
2021/01/20 12:45:23;;;;;;;5.87;1.53;;;21.20;20.70;;;;;;5053041;28;20555;-51
2021/01/20 12:47:52;;;;;;;1.33;1.17;;;21.20;21.20;;;;;;5035004;28;20178;-50
2021/01/20 12:50:18;;;;;;;2.58;1.23;;;21.20;20.70;;;;;;5053028;28;20387;-50
2021/01/20 12:52:43;;;;;;;3.40;1.87;;;21.20;20.70;;;;;;5050982;28;20179;-50